Girard, Louisiana
Current Conditions -  °F | °C
As of 7:53 AM on Thursday 18 Dec 2014 (Local Time) from KMLU Reporting Station
Haze Haze  
Wind Chill: 40°   Ceiling: 3000
Heat Index: 44°   Visibility: 6mi
Dew Point: 43°   Wind: 7mph
Humidity: 96%   Direction: 40°NE
Pressure: 30.21"   Gusts: NA
Location:  32.4475°N, 91.7992°W
Report Text: KMLU 181353Z 04006KT 6SM BR BKN030 OVC032 07/06 A3021 RMK AO2 RAE03 SLP230 P0000 T00670061
Loading
Personal Weather Stations






























Interactive Weather Map New forecast layout! Learn more

10-Day Weather Forecast

Advertisements
Track Severe Weather on mobile